Torning, Denmark
Current Conditions -  °F | °C
As of 12:00 AM on Friday 24 Oct 2014 (Local Time) from EKKA Reporting Station
Drizzle Drizzle  
Wind Chill: 54°   Ceiling: 4200
Heat Index: 54°   Visibility: 4mi
Dew Point: 52°   Wind: 10mph
Humidity: 94%   Direction: 170°S
Pressure: 30"   Gusts: NA
Location:  56.28°N, 9.33°E
Report Text: EKKA 232200Z 17009KT 6000 -DZ FEW006 BKN042 12/11 Q1016
Loading
Personal Weather Stations






























Interactive Weather Map
Tropical Storm Tracking
New forecast layout! Learn more

10-Day Weather Forecast

Advertisements
Track Severe Weather on mobile